Oto, Iowa
Current Conditions -  °F | °C
As of 12:52 PM on Friday 21 Nov 2014 (Local Time) from KSUX Reporting Station
Clear Clear  
Wind Chill: 27°   Ceiling: Unl
Heat Index: 37°   Visibility: 10mi
Dew Point: 24°   Wind: 18mph
Humidity: 59%   Direction: 180°S
Pressure: 30.07"   Gusts: NA
Location:  42.28°N, 95.89°W
Report Text: KSUX 211852Z AUTO 18016KT 10SM CLR 03/M04 A3007 RMK AO2 SLP199 T00281044
Loading
Personal Weather Stations






























Interactive Weather Map New forecast layout! Learn more

10-Day Weather Forecast

Advertisements
Track Severe Weather on mobile